Heloise — 3FLA7 — position and weather

sailwx.info

Track history (hours):
 
Tides and Currents Weather Stations Pressure Air Temp Water Temp Dewpoint Dewpoint Depression Visibility Wind Speed Wind Dir Waves Ship Positions

Heloise

Last reported at 2014-Jul-20 08:33 UTC. Time now 2014-Jul-24 12:24 UTC.
Position N 44°01' W 076°29'.

Length 186 m; draft 8 m.

Type: Cargo ship. MMSI: 352302000.

Date/timePositionNaut miles runAvg speedWind from/ knotsBaromVisibWave heightAir tempDewpointWater temp
2014-Jul-20 08:33N 44°01' W 076°29'1111.1
2014-Jul-20 07:33N 44°10' W 076°19'1211.3
2014-Jul-20 06:31N 44°15' W 076°05'89 7.4
2014-Jul-19 18:33N 45°08' W 074°25'1110.6
2014-Jul-19 17:34N 45°14' W 074°13'9 9.3
2014-Jul-19 16:33N 45°14' W 073°59'5 4.9
2014-Jul-19 15:34N 45°18' W 073°55'1 1.4
2014-Jul-19 14:33N 45°20' W 073°55'9 9.3
2014-Jul-19 13:34N 45°24' W 073°43'6 6.4
2014-Jul-19 12:34N 45°24' W 073°34'2 1.8
2014-Jul-19 11:33N 45°25' W 073°31'5 5.1
2014-Jul-19 10:33N 45°30' W 073°31'2 1.6
2014-Jul-19 09:34N 45°31' W 073°32'2 2.3
2014-Jul-19 08:32N 45°33' W 073°31'0 0.0
2014-Jul-19 07:32N 45°33' W 073°31'0 0.0
2014-Jul-19 06:32N 45°33' W 073°31'0 0.0
2014-Jul-19 05:32N 45°33' W 073°31'0 0.0
2014-Jul-19 04:32N 45°33' W 073°31'0 0.0
2014-Jul-19 03:32N 45°33' W 073°31'4 4.4
2014-Jul-19 02:33N 45°38' W 073°29'10 9.8
2014-Jul-19 01:33N 45°46' W 073°23'1010.0
2014-Jul-19 00:33N 45°54' W 073°13'10 9.5
2014-Jul-18 23:32N 46°03' W 073°08'1 0.1
2014-Jul-18 12:29N 46°03' W 073°07'0 0.0
2014-Jul-18 11:29N 46°03' W 073°07'0 0.0
2014-Jul-18 10:32N 46°03' W 073°07'0 0.0
2014-Jul-18 09:23N 46°03' W 073°07'0 0.0
2014-Jul-18 08:23N 46°03' W 073°07'0 0.0
2014-Jul-18 07:11N 46°03' W 073°07'14 1.2
2014-Jul-17 19:33N 46°12' W 072°52'1110.8
2014-Jul-17 18:33N 46°16' W 072°38'8 8.0
2014-Jul-17 17:33N 46°22' W 072°30'9 9.5
2014-Jul-17 16:33N 46°26' W 072°18'9 8.8
2014-Jul-17 15:33N 46°33' W 072°09'  
Track history (hours):
 
Tides and Currents Weather Stations Pressure Air Temp Water Temp Dewpoint Dewpoint Depression Visibility Wind Speed Wind Dir Waves Ship Positions

Heloise

Last reported at 2014-Jul-20 08:33 UTC. Time now 2014-Jul-24 12:24 UTC.
Position N 44°01' W 076°29'.

Length 186 m; draft 8 m.

Type: Cargo ship. MMSI: 352302000.

Date/timePositionNaut miles runAvg speedWind from/ knotsBaromVisibWave heightAir tempDewpointWater temp
2014-Jul-20 08:33N 44°01' W 076°29'1111.1
2014-Jul-20 07:33N 44°10' W 076°19'1211.3
2014-Jul-20 06:31N 44°15' W 076°05'89 7.4
2014-Jul-19 18:33N 45°08' W 074°25'1110.6
2014-Jul-19 17:34N 45°14' W 074°13'9 9.3
2014-Jul-19 16:33N 45°14' W 073°59'5 4.9
2014-Jul-19 15:34N 45°18' W 073°55'1 1.4
2014-Jul-19 14:33N 45°20' W 073°55'9 9.3
2014-Jul-19 13:34N 45°24' W 073°43'6 6.4
2014-Jul-19 12:34N 45°24' W 073°34'2 1.8
2014-Jul-19 11:33N 45°25' W 073°31'5 5.1
2014-Jul-19 10:33N 45°30' W 073°31'2 1.6
2014-Jul-19 09:34N 45°31' W 073°32'2 2.3
2014-Jul-19 08:32N 45°33' W 073°31'0 0.0
2014-Jul-19 07:32N 45°33' W 073°31'0 0.0
2014-Jul-19 06:32N 45°33' W 073°31'0 0.0
2014-Jul-19 05:32N 45°33' W 073°31'0 0.0
2014-Jul-19 04:32N 45°33' W 073°31'0 0.0
2014-Jul-19 03:32N 45°33' W 073°31'4 4.4
2014-Jul-19 02:33N 45°38' W 073°29'10 9.8
2014-Jul-19 01:33N 45°46' W 073°23'1010.0
2014-Jul-19 00:33N 45°54' W 073°13'10 9.5
2014-Jul-18 23:32N 46°03' W 073°08'1 0.1
2014-Jul-18 12:29N 46°03' W 073°07'0 0.0
2014-Jul-18 11:29N 46°03' W 073°07'0 0.0
2014-Jul-18 10:32N 46°03' W 073°07'0 0.0
2014-Jul-18 09:23N 46°03' W 073°07'0 0.0
2014-Jul-18 08:23N 46°03' W 073°07'0 0.0
2014-Jul-18 07:11N 46°03' W 073°07'14 1.2
2014-Jul-17 19:33N 46°12' W 072°52'1110.8
2014-Jul-17 18:33N 46°16' W 072°38'8 8.0
2014-Jul-17 17:33N 46°22' W 072°30'9 9.5
2014-Jul-17 16:33N 46°26' W 072°18'9 8.8
2014-Jul-17 15:33N 46°33' W 072°09'  

Dump ship's entire track history